Home > Products > Valid Products > TAF

000
FTUS44 KSJT 310800 AAA
TAFABI
TAF AMD
KABI 310847Z 3109/0106 02009KT P6SM SKC
     FM311600 02011G18KT P6SM SKC
     FM010000 05007KT P6SM SKC=



000
FTUS44 KSJT 310800 AAA
TAFJCT
TAF AMD
KJCT 310838Z 3109/0106 05010KT P6SM VCSH BKN020
     FM311000 05010KT P6SM SCT150
     FM311500 04010G18KT P6SM SKC
     FM010000 04005KT P6SM SKC=



000
FTUS44 KSJT 310500
TAFABI
TAF
KABI 310520Z 3106/0106 02010G18KT P6SM SKC
     FM312100 01011KT P6SM SKC
     FM010000 05007KT P6SM SKC=



000
FTUS44 KSJT 310500
TAFJCT
TAF
KJCT 310520Z 3106/0106 VRB04KT P6SM SKC
     FM311500 04010G18KT P6SM SKC
     FM010000 04005KT P6SM SKC=



000
FTUS44 KSJT 310500
TAFSJT
TAF
KSJT 310520Z 3106/0106 04010G16KT P6SM SKC
     FM312200 04007KT P6SM SKC=



000
FTUS44 KSJT 302300
TAFJCT
TAF
KJCT 302320Z 3100/3124 VRB05KT P6SM SCT070
     FM310100 VRB05KT P6SM VCTS BKN035CB
     FM310600 04005KT P6SM OVC025
     FM311200 05007KT P6SM SKC=



000
FTUS44 KSJT 302300
TAFABI
TAF
KABI 302320Z 3100/3124 02011KT P6SM SCT080
     FM310300 02008G18KT P6SM SKC
     FM312100 02012KT P6SM SKC=



000
FTUS44 KSJT 302300
TAFSJT
TAF
KSJT 302320Z 3100/3124 04007KT P6SM SCT080
     FM310900 03007G15KT P6SM SKC
     FM312200 04010KT P6SM SKC=



000
FTUS44 KSJT 301700
TAFABI
TAF
KABI 301730Z 3018/3118 22010KT P6SM SCT040
     FM302100 36010KT P6SM SCT040
     FM310300 03008KT P6SM SKC=



000
FTUS44 KSJT 301700
TAFJCT
TAF
KJCT 301730Z 3018/3118 21008KT P6SM SCT040
     FM310100 VRB05KT P6SM VCTS BKN035CB
     FM310600 04005KT P6SM OVC025
     FM311200 05007KT P6SM SKC=



000
FTUS44 KSJT 301700
TAFSJT
TAF
KSJT 301730Z 3018/3118 21008KT P6SM SCT040
     FM310000 03007KT P6SM VCTS SCT040CB
     FM310400 04008KT P6SM BKN035
     FM310900 03007KT P6SM SKC=



000
FTUS44 KSJT 301700
TAFSJT
TAF
KSJT 301730Z 3018/3118 21008KT P6SM SCT040
     FM310000 03007KT P6SM VCTS SCT040CB
     FM310400 04008KT P6SM BKN035
     FM310900 03007KT P6SM SKC=



000
FTUS44 KSJT 301700
TAFJCT
TAF
KJCT 301730Z 3018/3118 21008KT P6SM SCT040
     FM310100 VRB05KT P6SM VCTS BKN035CB
     FM310600 04005KT P6SM OVC025
     FM311200 05007KT P6SM SKC=



000
FTUS44 KSJT 301700
TAFABI
TAF
KABI 301730Z 3018/3118 22010KT P6SM SCT040
     FM302100 36010KT P6SM SCT040
     FM310300 03008KT P6SM SKC=



000
FTUS44 KSJT 301600 AAA
TAFSJT
TAF AMD
KSJT 301601Z 3016/3112 21008KT P6SM SCT040
     FM302100 28010KT P6SM BKN040
     FM310000 03007KT P6SM OVC050
     FM310600 04010KT P6SM SKC=



000
FTUS44 KSJT 301500 AAB
TAFJCT
TAF AMD
KJCT 301535Z 3016/3112 21008KT P6SM SCT040
     FM302100 25009KT P6SM BKN040
     FM310000 VRB06KT P6SM BKN040
     FM310600 36008KT P6SM OVC050=



000
FTUS44 KSJT 301400 AAA
TAFJCT
TAF AMD
KJCT 301406Z 3014/3112 16007KT 6SM BR BKN012
     FM301600 21008KT P6SM BKN040
     FM302100 25009KT P6SM BKN040
     FM310000 VRB06KT P6SM BKN040
     FM310600 36008KT P6SM OVC050=



000
FTUS44 KSJT 301100
TAFABI
TAF
KABI 301136Z 3012/3112 17008KT P6SM SKC
     FM301800 23010KT P6SM SCT040
     FM302100 29010KT P6SM SCT040
     FM310000 02008KT P6SM OVC050
     FM310600 04010KT P6SM SKC=



000
FTUS44 KSJT 301100
TAFSJT
TAF
KSJT 301136Z 3012/3112 16008KT P6SM SKC
     FM301800 22010KT P6SM SCT040
     FM302100 28010KT P6SM BKN040
     FM310000 03007KT P6SM OVC050
     FM310600 04010KT P6SM SKC=



000
FTUS44 KSJT 301100
TAFJCT
TAF
KJCT 301136Z 3012/3112 16007KT P6SM SCT040
     FM301800 21008KT P6SM BKN040
     FM302100 25009KT P6SM BKN040
     FM310000 VRB06KT P6SM BKN040
     FM310600 36008KT P6SM OVC050=



000
FTUS44 KSJT 301000 AAA
TAFABI
TAF AMD
KABI 301007Z 3010/3106 VRB06KT P6SM SKC
     FM301500 19006KT P6SM BKN025
     FM302100 30005KT P6SM SCT050=



000
FTUS44 KSJT 301000 AAA
TAFSJT
TAF AMD
KSJT 301006Z 3010/3106 VRB06KT P6SM SCT040
     FM301200 VRB06KT 5SM BR BKN012
     FM301900 21005KT P6SM BKN050=



000
FTUS44 KSJT 301000 AAA
TAFJCT
TAF AMD
KJCT 301005Z 3010/3106 VRB03KT P6SM BKN040
     FM301200 10003KT 4SM BR OVC015
     FM302000 19004KT P6SM BKN050=



000
FTUS44 KSJT 300500
TAFJCT
TAF
KJCT 300520Z 3006/3106 VRB03KT P6SM BKN040
     FM301000 10003KT 4SM BR OVC015
     FM302000 19004KT P6SM BKN050=



000
FTUS44 KSJT 300500
TAFSJT
TAF
KSJT 300520Z 3006/3106 17005KT P6SM SCT040
     FM301100 17004KT 5SM BR BKN012
     FM301900 21005KT P6SM BKN050=



000
FTUS44 KSJT 300500
TAFABI
TAF
KABI 300520Z 3006/3106 15006KT P6SM SKC
     FM301500 19006KT P6SM BKN025
     FM302100 30005KT P6SM SCT050=



000
FTUS44 KSJT 292300
TAFABI
TAF
KABI 292321Z 3000/3024 VRB05KT P6SM SKC
     FM301500 19006KT P6SM BKN025
     FM302100 30005KT P6SM SCT050=



000
FTUS44 KSJT 292300
TAFJCT
TAF
KJCT 292321Z 3000/3024 VRB05KT P6SM FEW040
     FM301000 10003KT 4SM BR OVC015
     FM302000 19004KT P6SM BKN050=



000
FTUS44 KSJT 292300
TAFSJT
TAF
KSJT 292321Z 3000/3024 VRB04KT P6SM SCT040
     FM301100 17004KT 5SM BR BKN012
     FM301900 21005KT P6SM BKN050=



000
FTUS44 KSJT 291800 AAA
TAFSJT
TAF AMD
KSJT 291827Z 2918/3018 09010KT P6SM SCT040
     FM300900 17006KT P6SM BKN015
     FM301600 18010KT P6SM BKN050=



000
FTUS44 KSJT 291700
TAFABI
TAF
KABI 291723Z 2918/3018 33005KT P6SM SKC
     FM301100 18006KT P6SM BKN025
     FM301500 18010KT P6SM BKN080=



000
FTUS44 KSJT 291700
TAFSJT
TAF
KSJT 291723Z 2918/3018 10006KT P6SM FEW060
     FM300900 17006KT P6SM BKN015
     FM301600 18010KT P6SM BKN050=



000
FTUS44 KSJT 291700
TAFJCT
TAF
KJCT 291723Z 2918/3018 08008KT P6SM BKN025
     FM291900 09006KT P6SM BKN040
     FM300800 10004KT P6SM OVC015=



000
FTUS44 KSJT 291600 AAC
TAFJCT
TAF AMD
KJCT 291647Z 2917/3012 09008KT P6SM BKN025 BKN045=



000
FTUS44 KSJT 291300 AAB
TAFJCT
TAF AMD
KJCT 291321Z 2913/3012 VRB06KT P6SM BKN035
      TEMPO 2913/2915 OVC025
     FM291600 09008KT P6SM BKN045=



000
FTUS44 KSJT 291300 AAB
TAFJCT
TAF AMD
KJCT 291321Z 2913/3012 VRB06KT P6SM BKN035
      TEMPO 2913/2915 OVC025
     FM291600 09008KT P6SM BKN045=



000
FTUS44 KSJT 291100 AAA
TAFJCT
TAF AMD
KJCT 291154Z 2912/3012 VRB06KT P6SM BKN070
      TEMPO 2912/2915 OVC025=



000
FTUS44 KSJT 291100
TAFABI
TAF
KABI 291123Z 2912/3012 VRB06KT P6SM SCT060=



000
FTUS44 KSJT 291100
TAFSJT
TAF
KSJT 291123Z 2912/3012 VRB06KT P6SM BKN060=



000
FTUS44 KSJT 291100
TAFJCT
TAF
KJCT 291123Z 2912/3012 VRB06KT P6SM BKN070=



000
FTUS44 KSJT 291000 AAA
TAFSJT
TAF AMD
KSJT 291043Z 2911/3006 VRB06KT P6SM OVC050
     FM292100 12008KT P6SM SCT040=



000
FTUS44 KSJT 291000 AAA
TAFSJT
TAF AMD
KSJT 291043Z 2911/3006 VRB06KT P6SM OVC050
     FM292100 12008KT P6SM SCT040=



000
FTUS44 KSJT 291000 AAA
TAFJCT
TAF AMD
KJCT 291039Z 2911/3006 VRB06KT P6SM SCT070
     FM291800 09005KT P6SM BKN050=



000
FTUS44 KSJT 291000 AAA
TAFJCT
TAF AMD
KJCT 291039Z 2911/3006 VRB06KT P6SM SCT070
     FM291800 09005KT P6SM BKN050=



000
FTUS44 KSJT 290500 RRA
TAFJCT
TAF
KJCT 290542Z 2906/3006 VRB03KT P6SM BKN040
     FM291000 VRB03KT P6SM BKN025
     FM291800 09005KT P6SM BKN040=



000
FTUS44 KSJT 290500 RRA
TAFABI
TAF
KABI 290542Z 2906/3006 VRB06KT P6SM SKC
     FM291900 10006KT P6SM SCT040
     FM300000 13005KT P6SM FEW050=



000
FTUS44 KSJT 290500 RRA
TAFSJT
TAF
KSJT 290542Z 2906/3006 VRB06KT P6SM SCT060
     FM291000 VRB06KT P6SM BKN050
     FM292000 12006KT P6SM SCT040=



000
FTUS44 KSJT 282300
TAFSJT
TAF
KSJT 282330Z 2900/2924 03005KT P6SM SKC
     FM290500 VRB04KT P6SM SCT100
     FM291000 06005KT P6SM BKN050
     FM291800 10006KT P6SM SCT050 BKN100=



000
FTUS44 KSJT 282300
TAFJCT
TAF
KJCT 282330Z 2900/2924 03004KT P6SM BKN045
     FM290700 VRB05KT P6SM BKN025
     FM291900 08006KT P6SM BKN040=



000
FTUS44 KSJT 282300
TAFABI
TAF
KABI 282330Z 2900/2924 VRB05KT P6SM FEW250
     FM291700 09006KT P6SM FEW040=



000
FTUS44 KSJT 281700
TAFJCT
TAF
KJCT 281729Z 2818/2918 VRB06KT P6SM FEW250
     FM290000 VRB05KT P6SM BKN150
     FM290600 VRB05KT P6SM BKN025 OVC100=



000
FTUS44 KSJT 281700
TAFSJT
TAF
KSJT 281729Z 2818/2918 03008KT P6SM FEW250
     FM290000 04006KT P6SM SCT200
     FM290600 VRB05KT P6SM SCT040 BKN100=



000
FTUS44 KSJT 281700
TAFABI
TAF
KABI 281729Z 2818/2918 02010KT P6SM FEW250
     FM290000 VRB05KT P6SM FEW250=



000
FTUS44 KSJT 281200 AAB
TAFJCT
TAF AMD
KJCT 281257Z 2813/2912 36006KT P6SM BKN150
      TEMPO 2813/2814 BKN022
     FM281500 36007KT P6SM SCT150
     FM290000 VRB06KT P6SM BKN250=



000
FTUS44 KSJT 281200 AAA
TAFJCT
TAF AMD
KJCT 281213Z 2812/2912 36006KT P6SM BKN150
      TEMPO 2812/2814 BKN014
     FM281500 36007KT P6SM SCT150
     FM290000 VRB06KT P6SM BKN250=



000
FTUS44 KSJT 281100
TAFABI
TAF
KABI 281130Z 2812/2912 36010KT P6SM SKC
     FM290000 VRB06KT P6SM BKN250=



000
FTUS44 KSJT 281100
TAFSJT
TAF
KSJT 281130Z 2812/2912 36010KT P6SM SKC
     FM290000 VRB06KT P6SM BKN250=



000
FTUS44 KSJT 281100
TAFJCT
TAF
KJCT 281130Z 2812/2912 VRB06KT P6SM BKN150
     FM281500 36007KT P6SM SCT150
     FM290000 VRB06KT P6SM BKN250=



    US Dept of Commerce
    National Oceanic and Atmospheric Administration
    National Weather Service
    1325 East West Highway
    Silver Spring, MD 20910
    Page Author: NWS Internet Services Team
Disclaimer
Information Quality
Credits
Glossary
Privacy Policy
Freedom of Information Act (FOIA)
About Us
Career Opportunities